createdAt,value
2018-12-06T00:02:24.219Z,1.40
2018-12-06T00:04:51.687Z,1.30
2018-12-06T00:07:21.182Z,1.30
2018-12-06T00:09:48.625Z,1.30
2018-12-06T00:12:16.040Z,1.30
2018-12-06T00:14:43.512Z,1.30
2018-12-06T00:17:11.007Z,1.30
2018-12-06T00:19:38.409Z,1.20
2018-12-06T00:22:05.918Z,1.20
2018-12-06T00:24:33.440Z,1.20
2018-12-06T00:27:01.051Z,1.20
2018-12-06T00:29:28.540Z,1.20
2018-12-06T00:31:55.982Z,1.20
2018-12-06T00:34:23.423Z,1.30
2018-12-06T00:36:50.918Z,1.30
2018-12-06T00:39:18.368Z,1.30
2018-12-06T00:41:45.801Z,1.30
2018-12-06T00:44:13.297Z,1.30
2018-12-06T00:46:40.784Z,1.30
2018-12-06T00:49:08.234Z,1.30
2018-12-06T00:51:35.815Z,1.30
2018-12-06T00:54:03.347Z,1.20
2018-12-06T00:56:30.808Z,1.10
2018-12-06T00:58:58.294Z,1.10
2018-12-06T01:01:25.752Z,1.10
2018-12-06T01:03:53.194Z,1.10
2018-12-06T01:06:20.907Z,1.20
2018-12-06T01:08:48.353Z,1.20
2018-12-06T01:11:15.797Z,1.20
2018-12-06T01:13:45.212Z,1.20
2018-12-06T01:16:12.873Z,1.20
2018-12-06T01:18:40.359Z,1.30
2018-12-06T01:21:07.894Z,1.30
2018-12-06T01:23:35.306Z,1.30
2018-12-06T01:26:02.800Z,1.30
2018-12-06T01:28:30.252Z,1.30
2018-12-06T01:30:58.617Z,1.30
2018-12-06T01:33:26.041Z,1.30
2018-12-06T01:35:53.812Z,1.30
2018-12-06T01:38:21.302Z,1.20
2018-12-06T01:40:48.714Z,1.20
2018-12-06T01:43:16.217Z,1.20
2018-12-06T01:45:43.652Z,1.30
2018-12-06T01:48:11.316Z,1.30
2018-12-06T01:50:38.810Z,1.40
2018-12-06T01:53:06.337Z,1.40
2018-12-06T01:55:33.794Z,1.50
2018-12-06T01:58:01.259Z,1.50
2018-12-06T02:00:28.752Z,1.40
2018-12-06T02:02:56.235Z,1.40
2018-12-06T02:05:23.959Z,1.30
2018-12-06T02:07:51.385Z,1.30
2018-12-06T02:10:18.824Z,1.30
2018-12-06T02:12:46.473Z,1.40
2018-12-06T02:15:13.976Z,1.30
2018-12-06T02:17:41.434Z,1.40
2018-12-06T02:20:08.984Z,1.30
2018-12-06T02:22:36.422Z,1.30
2018-12-06T02:25:03.936Z,1.30
2018-12-06T02:27:31.656Z,1.30
2018-12-06T02:29:59.085Z,1.30
2018-12-06T02:32:26.556Z,1.30
2018-12-06T02:34:54.026Z,1.30
2018-12-06T02:37:21.461Z,1.40
2018-12-06T02:39:48.907Z,1.30
2018-12-06T02:42:16.415Z,1.30
2018-12-06T02:44:43.853Z,1.30
2018-12-06T02:47:11.314Z,1.30
2018-12-06T02:49:38.794Z,1.30
2018-12-06T02:52:06.264Z,1.20
2018-12-06T02:54:33.807Z,1.20
2018-12-06T02:57:01.348Z,1.20
2018-12-06T02:59:28.769Z,1.20
2018-12-06T03:01:56.225Z,1.20
2018-12-06T03:04:23.711Z,1.20
2018-12-06T03:06:51.187Z,1.20
2018-12-06T03:09:18.592Z,1.20
2018-12-06T03:11:46.341Z,1.30
2018-12-06T03:14:13.785Z,1.30
2018-12-06T03:16:41.494Z,1.40
2018-12-06T03:19:08.986Z,1.40
2018-12-06T03:21:36.389Z,1.50
2018-12-06T03:24:03.936Z,1.50
2018-12-06T03:26:31.408Z,1.60
2018-12-06T03:28:58.992Z,1.60
2018-12-06T03:31:26.468Z,1.60
2018-12-06T03:33:54.294Z,1.60
2018-12-06T03:36:21.810Z,1.60
2018-12-06T03:38:49.221Z,1.50
2018-12-06T03:41:16.688Z,1.40
2018-12-06T03:43:44.298Z,1.40
2018-12-06T03:46:11.789Z,1.40
2018-12-06T03:48:39.290Z,1.40
2018-12-06T03:51:06.727Z,1.40
2018-12-06T03:53:34.162Z,1.40
2018-12-06T03:56:01.630Z,1.40
2018-12-06T03:58:29.099Z,1.40
2018-12-06T04:00:57.463Z,1.40
2018-12-06T04:03:24.941Z,1.40
2018-12-06T04:05:52.771Z,1.40
2018-12-06T04:08:20.192Z,1.30
2018-12-06T04:10:47.683Z,1.30
2018-12-06T04:13:15.104Z,1.20
2018-12-06T04:15:42.519Z,1.20
2018-12-06T04:18:10.106Z,1.20
2018-12-06T04:20:37.635Z,1.30
2018-12-06T04:23:05.069Z,1.30
2018-12-06T04:25:32.563Z,1.30
2018-12-06T04:28:00.051Z,1.30
2018-12-06T04:30:27.461Z,1.30
2018-12-06T04:32:54.909Z,1.30
2018-12-06T04:35:22.525Z,1.30
2018-12-06T04:37:50.094Z,1.30
2018-12-06T04:40:17.552Z,1.30
2018-12-06T04:42:44.974Z,1.30
2018-12-06T04:45:12.592Z,1.30
2018-12-06T04:47:40.152Z,1.30
2018-12-06T04:50:07.790Z,1.30
2018-12-06T04:52:35.234Z,1.30
2018-12-06T04:55:02.745Z,1.30
2018-12-06T04:57:30.186Z,1.30
2018-12-06T04:59:57.622Z,1.30
2018-12-06T05:02:25.131Z,1.30
2018-12-06T05:04:52.589Z,1.30
2018-12-06T05:07:20.002Z,1.30
2018-12-06T05:09:47.505Z,1.30
2018-12-06T05:12:14.971Z,1.30
2018-12-06T05:14:42.427Z,1.30
2018-12-06T05:17:10.002Z,1.30
2018-12-06T05:19:37.488Z,1.40
2018-12-06T05:22:04.941Z,1.40
2018-12-06T05:24:32.434Z,1.40
2018-12-06T05:27:00.429Z,1.40
2018-12-06T05:29:27.838Z,1.40
2018-12-06T05:31:55.421Z,1.40
2018-12-06T05:34:22.896Z,1.40
2018-12-06T05:36:50.357Z,1.40
2018-12-06T05:39:18.290Z,1.50
2018-12-06T05:41:45.697Z,1.50
2018-12-06T05:44:13.216Z,1.50
2018-12-06T05:46:40.705Z,1.50
2018-12-06T05:49:08.169Z,1.50
2018-12-06T05:51:35.617Z,1.40
2018-12-06T05:54:03.112Z,1.50
2018-12-06T05:56:30.554Z,1.40
2018-12-06T05:58:58.018Z,1.50
2018-12-06T06:01:25.546Z,1.50
2018-12-06T06:03:53.023Z,1.50
2018-12-06T06:06:20.468Z,1.50
2018-12-06T06:08:47.900Z,1.60
2018-12-06T06:11:15.388Z,1.60
2018-12-06T06:13:42.979Z,1.60
2018-12-06T06:16:10.426Z,1.50
2018-12-06T06:18:37.876Z,1.60
2018-12-06T06:21:05.347Z,1.60
2018-12-06T06:23:32.864Z,1.70
2018-12-06T06:26:00.314Z,1.70
2018-12-06T06:28:27.782Z,1.80
2018-12-06T06:30:55.265Z,1.80
2018-12-06T06:33:22.791Z,1.90
2018-12-06T06:35:50.222Z,1.80
2018-12-06T06:38:17.701Z,1.80
2018-12-06T06:40:45.131Z,1.80
2018-12-06T06:43:12.879Z,1.80
2018-12-06T06:45:40.401Z,1.80
2018-12-06T06:48:07.843Z,1.80
2018-12-06T06:50:35.352Z,1.80
2018-12-06T06:53:02.777Z,1.80
2018-12-06T06:55:30.197Z,1.90
2018-12-06T06:57:57.621Z,1.80
2018-12-06T07:00:25.141Z,1.80
2018-12-06T07:02:52.657Z,1.80
2018-12-06T07:05:20.102Z,1.80
2018-12-06T07:07:47.586Z,1.80
2018-12-06T07:10:15.106Z,1.80
2018-12-06T07:12:42.536Z,1.80
2018-12-06T07:15:10.138Z,1.80
2018-12-06T07:17:37.595Z,1.80
2018-12-06T07:20:05.436Z,1.80
2018-12-06T07:22:32.870Z,1.80
2018-12-06T07:25:00.322Z,1.80
2018-12-06T07:27:27.779Z,1.90
2018-12-06T07:29:55.220Z,2.00
2018-12-06T07:32:22.676Z,2.00
2018-12-06T07:34:50.212Z,2.00
2018-12-06T07:37:17.752Z,2.00
2018-12-06T07:39:45.230Z,2.20
2018-12-06T07:42:13.023Z,2.40
2018-12-06T07:44:40.481Z,2.50
2018-12-06T07:47:07.981Z,2.60
2018-12-06T07:49:35.421Z,2.60
2018-12-06T07:52:02.946Z,2.60
2018-12-06T07:54:30.373Z,2.60
2018-12-06T07:56:57.860Z,2.70
2018-12-06T07:59:25.345Z,2.70
2018-12-06T08:01:52.870Z,2.70
2018-12-06T08:04:20.289Z,2.70
2018-12-06T08:06:47.961Z,2.70
2018-12-06T08:09:15.424Z,2.60
2018-12-06T08:11:42.878Z,2.70
2018-12-06T08:14:10.360Z,2.70
2018-12-06T08:16:37.826Z,2.70
2018-12-06T08:19:05.359Z,2.80
2018-12-06T08:21:32.859Z,2.80
2018-12-06T08:24:00.322Z,2.80
2018-12-06T08:26:27.750Z,2.80
2018-12-06T08:28:55.229Z,2.80
2018-12-06T08:31:22.699Z,2.80
2018-12-06T08:33:50.136Z,2.70
2018-12-06T08:36:17.673Z,2.70
2018-12-06T08:38:45.080Z,2.70
2018-12-06T08:41:12.544Z,2.70
2018-12-06T08:43:40.056Z,2.70
2018-12-06T08:46:07.502Z,2.80
2018-12-06T08:48:34.937Z,2.80
2018-12-06T08:51:02.389Z,3.00
2018-12-06T08:53:29.828Z,3.10
2018-12-06T08:55:57.313Z,3.10
2018-12-06T08:58:24.788Z,3.20
2018-12-06T09:00:52.206Z,3.50
2018-12-06T09:03:19.665Z,3.70
2018-12-06T09:05:47.197Z,3.90
2018-12-06T09:08:14.978Z,4.00
2018-12-06T09:10:42.514Z,4.20
2018-12-06T09:13:09.986Z,4.20
2018-12-06T09:15:37.424Z,4.40
2018-12-06T09:18:04.836Z,4.50
2018-12-06T09:20:32.670Z,4.70
2018-12-06T09:23:00.112Z,4.80
2018-12-06T09:25:27.533Z,5.00
2018-12-06T09:27:55.100Z,5.10
2018-12-06T09:30:22.612Z,5.20
2018-12-06T09:32:50.053Z,5.10
2018-12-06T09:35:17.532Z,5.00
2018-12-06T09:37:44.997Z,5.00
2018-12-06T09:40:12.687Z,5.00
2018-12-06T09:42:40.192Z,5.00
2018-12-06T09:45:07.870Z,4.90
2018-12-06T09:47:35.314Z,4.90
2018-12-06T09:50:03.060Z,4.90
2018-12-06T09:52:30.512Z,4.80
2018-12-06T09:54:57.966Z,4.70
2018-12-06T09:57:25.478Z,4.70
2018-12-06T09:59:52.878Z,4.70
2018-12-06T10:02:20.384Z,4.60
2018-12-06T10:04:47.858Z,4.60
2018-12-06T10:07:15.375Z,4.60
2018-12-06T10:09:42.858Z,4.50
2018-12-06T10:12:10.344Z,4.60
2018-12-06T10:14:37.794Z,4.60
2018-12-06T10:17:05.217Z,4.60
2018-12-06T10:19:32.701Z,4.60
2018-12-06T10:22:00.140Z,4.70
2018-12-06T10:24:27.618Z,4.70
2018-12-06T10:26:55.073Z,4.70
2018-12-06T10:29:22.527Z,4.80
2018-12-06T10:31:49.952Z,4.90
2018-12-06T10:34:17.413Z,5.00
2018-12-06T10:36:44.885Z,5.00
2018-12-06T10:39:12.367Z,5.00
2018-12-06T10:41:39.808Z,5.00
2018-12-06T10:44:07.279Z,5.00
2018-12-06T10:46:34.746Z,4.90
2018-12-06T10:49:02.253Z,4.90
2018-12-06T10:51:42.619Z,4.80
2018-12-06T10:54:10.113Z,4.80
2018-12-06T10:56:37.603Z,4.90
2018-12-06T10:59:05.042Z,4.90
2018-12-06T11:01:38.228Z,4.80
2018-12-06T11:04:05.695Z,4.90
2018-12-06T11:06:33.142Z,4.90
2018-12-06T11:09:00.650Z,4.90
2018-12-06T11:11:28.077Z,5.10
2018-12-06T11:13:55.527Z,5.20
2018-12-06T11:16:23.525Z,5.40
2018-12-06T11:18:50.982Z,5.50
2018-12-06T11:21:18.534Z,5.60
2018-12-06T11:23:47.667Z,5.70
2018-12-06T11:26:15.298Z,5.70
2018-12-06T11:28:42.759Z,5.70
2018-12-06T11:31:10.237Z,5.70
2018-12-06T11:33:37.723Z,5.60
2018-12-06T11:36:05.232Z,5.50
2018-12-06T11:38:32.702Z,5.50
2018-12-06T11:41:00.196Z,5.40
2018-12-06T11:43:27.674Z,5.40
2018-12-06T11:45:55.233Z,5.40
2018-12-06T11:48:26.854Z,5.40
2018-12-06T11:50:52.287Z,5.40
2018-12-06T11:53:19.756Z,5.40
2018-12-06T11:55:47.235Z,5.40
2018-12-06T11:58:14.856Z,5.40
2018-12-06T12:00:42.370Z,5.40
2018-12-06T12:03:09.793Z,5.30
2018-12-06T12:05:37.216Z,5.30
2018-12-06T12:08:04.758Z,5.40
2018-12-06T12:10:32.177Z,5.40
2018-12-06T12:12:59.668Z,5.50
2018-12-06T12:15:27.173Z,5.40
2018-12-06T12:17:54.617Z,5.40
2018-12-06T12:20:22.029Z,5.50
2018-12-06T12:22:49.551Z,5.50
2018-12-06T12:25:17.021Z,5.40
2018-12-06T12:27:44.491Z,5.30
2018-12-06T12:30:12.034Z,5.30
2018-12-06T12:32:39.456Z,5.20
2018-12-06T12:35:07.117Z,5.10
2018-12-06T12:37:34.596Z,5.20
2018-12-06T12:40:02.020Z,5.10
2018-12-06T12:42:29.477Z,5.10
2018-12-06T12:44:56.970Z,5.20
2018-12-06T12:47:24.444Z,5.20
2018-12-06T12:49:51.899Z,5.10
2018-12-06T12:52:19.523Z,5.10
2018-12-06T12:54:46.998Z,5.10
2018-12-06T12:57:14.460Z,5.10
2018-12-06T12:59:41.945Z,5.10
2018-12-06T13:02:09.420Z,5.10
2018-12-06T13:04:36.897Z,5.10
2018-12-06T13:07:11.708Z,5.20
2018-12-06T13:09:39.258Z,5.20
2018-12-06T13:12:06.878Z,5.20
2018-12-06T13:14:34.643Z,5.20
2018-12-06T13:17:02.072Z,5.20
2018-12-06T13:19:29.631Z,5.20
2018-12-06T13:21:57.096Z,5.20
2018-12-06T13:24:24.540Z,5.20
2018-12-06T13:26:52.007Z,5.20
2018-12-06T13:29:19.532Z,5.20
2018-12-06T13:31:46.971Z,5.20
2018-12-06T13:34:14.424Z,5.20
2018-12-06T13:36:41.924Z,5.20
2018-12-06T13:39:09.370Z,5.20
2018-12-06T13:41:36.820Z,5.20
2018-12-06T13:44:04.343Z,5.20
2018-12-06T13:46:31.963Z,5.30
2018-12-06T13:48:59.537Z,5.30
2018-12-06T13:51:27.123Z,5.30
2018-12-06T13:53:54.744Z,5.30
2018-12-06T13:56:22.207Z,5.30
2018-12-06T13:58:49.723Z,5.30
2018-12-06T14:01:17.320Z,5.30
2018-12-06T14:03:44.996Z,5.40
2018-12-06T14:06:12.500Z,5.40
2018-12-06T14:08:40.098Z,5.40
2018-12-06T14:11:07.666Z,5.40
2018-12-06T14:13:35.219Z,5.40
2018-12-06T14:16:07.104Z,5.40
2018-12-06T14:18:32.288Z,5.40
2018-12-06T14:20:59.832Z,5.40
2018-12-06T14:23:27.371Z,5.40
2018-12-06T14:25:55.023Z,5.30
2018-12-06T14:28:22.516Z,5.20
2018-12-06T14:30:50.025Z,5.10
2018-12-06T14:33:17.472Z,5.10
2018-12-06T14:35:45.004Z,5.10
2018-12-06T14:38:12.454Z,5.10
2018-12-06T14:40:39.969Z,5.10
2018-12-06T14:43:07.826Z,5.10
2018-12-06T14:45:35.635Z,5.20
2018-12-06T14:48:03.290Z,5.20
2018-12-06T14:50:30.903Z,5.20
2018-12-06T14:52:58.376Z,5.20
2018-12-06T14:55:25.822Z,5.20
2018-12-06T14:57:53.308Z,5.20
2018-12-06T15:00:20.787Z,5.20
2018-12-06T15:02:48.221Z,5.30
2018-12-06T15:05:15.707Z,5.30
2018-12-06T15:07:43.163Z,5.20
2018-12-06T15:10:10.704Z,5.20
2018-12-06T15:12:38.212Z,5.20
2018-12-06T15:15:05.993Z,5.20
2018-12-06T15:17:33.495Z,5.10
2018-12-06T15:20:01.045Z,5.10
2018-12-06T15:22:28.448Z,5.10
2018-12-06T15:24:56.170Z,5.10
2018-12-06T15:27:24.016Z,5.20
2018-12-06T15:29:51.810Z,5.20
2018-12-06T15:32:19.222Z,5.20
2018-12-06T15:34:47.025Z,5.20
2018-12-06T15:37:14.942Z,5.20
2018-12-06T15:39:42.396Z,5.20
2018-12-06T15:42:09.874Z,5.20
2018-12-06T15:44:37.359Z,5.20
2018-12-06T15:47:04.810Z,5.20
2018-12-06T15:49:32.333Z,5.20
2018-12-06T15:51:59.813Z,5.20
2018-12-06T15:54:27.268Z,5.20
2018-12-06T15:56:54.776Z,5.20
2018-12-06T15:59:22.271Z,5.20
2018-12-06T16:01:49.709Z,5.10
2018-12-06T16:04:17.196Z,5.20
2018-12-06T16:06:44.848Z,5.20
2018-12-06T16:09:12.324Z,5.20
2018-12-06T16:11:39.758Z,5.20
2018-12-06T16:14:07.218Z,5.20
2018-12-06T16:16:34.835Z,5.30
2018-12-06T16:19:02.407Z,5.20
2018-12-06T16:21:29.978Z,5.20
2018-12-06T16:23:57.407Z,5.20
2018-12-06T16:26:24.879Z,5.20
2018-12-06T16:28:52.294Z,5.20
2018-12-06T16:31:19.713Z,5.20
2018-12-06T16:33:47.285Z,5.20
2018-12-06T16:36:14.772Z,5.20
2018-12-06T16:38:42.514Z,5.30
2018-12-06T16:41:10.029Z,5.30
2018-12-06T16:43:37.529Z,5.30
2018-12-06T16:46:05.017Z,5.30
2018-12-06T16:48:32.575Z,5.30
2018-12-06T16:51:00.065Z,5.30
2018-12-06T16:53:27.469Z,5.30
2018-12-06T16:55:55.069Z,5.30
2018-12-06T16:58:22.582Z,5.30
2018-12-06T17:00:50.546Z,5.40
2018-12-06T17:03:18.038Z,5.40
2018-12-06T17:05:45.506Z,5.40
2018-12-06T17:08:13.075Z,5.40
2018-12-06T17:10:40.528Z,5.40
2018-12-06T17:13:08.049Z,5.50
2018-12-06T17:15:40.546Z,5.40
2018-12-06T17:18:08.043Z,5.50
2018-12-06T17:20:35.525Z,5.50
2018-12-06T17:23:03.383Z,5.50
2018-12-06T17:25:30.857Z,5.60
2018-12-06T17:27:58.374Z,5.60
2018-12-06T17:30:25.793Z,5.60
2018-12-06T17:32:53.410Z,5.70
2018-12-06T17:35:20.844Z,5.70
2018-12-06T17:37:48.444Z,5.70
2018-12-06T17:40:15.948Z,5.80
2018-12-06T17:42:43.436Z,5.80
2018-12-06T17:45:10.934Z,5.80
2018-12-06T17:47:38.443Z,5.80
2018-12-06T17:50:06.390Z,5.80
2018-12-06T17:52:33.833Z,5.80
2018-12-06T17:55:01.778Z,5.80
2018-12-06T17:57:29.351Z,5.80
2018-12-06T17:59:56.827Z,5.80
2018-12-06T18:02:24.284Z,5.80
2018-12-06T18:04:51.768Z,5.80
2018-12-06T18:07:19.206Z,5.80
2018-12-06T18:09:47.771Z,5.80
2018-12-06T18:12:15.476Z,5.80
2018-12-06T18:14:42.930Z,5.80
2018-12-06T18:17:10.716Z,5.90
2018-12-06T18:19:38.327Z,5.90
2018-12-06T18:22:11.736Z,5.90
2018-12-06T18:24:39.162Z,5.80
2018-12-06T18:27:06.589Z,5.90
2018-12-06T18:29:34.037Z,5.90
2018-12-06T18:32:01.497Z,5.90
2018-12-06T18:34:29.078Z,5.90
2018-12-06T18:36:56.544Z,6.00
2018-12-06T18:39:25.028Z,5.90
2018-12-06T18:41:53.421Z,6.00
2018-12-06T18:44:20.920Z,6.00
2018-12-06T18:46:48.383Z,6.00
2018-12-06T18:49:15.873Z,6.10
2018-12-06T18:51:43.322Z,6.10
2018-12-06T18:54:10.860Z,6.10
2018-12-06T18:56:38.292Z,6.10
2018-12-06T18:59:05.864Z,6.10
2018-12-06T19:01:33.299Z,6.10
2018-12-06T19:04:00.787Z,6.20
2018-12-06T19:06:28.300Z,6.20
2018-12-06T19:08:55.780Z,6.20
2018-12-06T19:11:23.231Z,6.20
2018-12-06T19:13:50.697Z,6.20
2018-12-06T19:16:18.144Z,6.20
2018-12-06T19:18:47.561Z,6.30
2018-12-06T19:21:16.991Z,6.40
2018-12-06T19:23:45.393Z,6.40
2018-12-06T19:26:13.004Z,6.50
2018-12-06T19:28:40.453Z,6.50
2018-12-06T19:31:08.875Z,6.60
2018-12-06T19:33:37.282Z,6.60
2018-12-06T19:36:15.457Z,6.60
2018-12-06T19:38:43.949Z,6.70
2018-12-06T19:41:11.457Z,6.70
2018-12-06T19:43:39.030Z,6.60
2018-12-06T19:46:06.514Z,6.70
2018-12-06T19:48:33.962Z,6.70
2018-12-06T19:51:07.042Z,6.80
2018-12-06T19:53:34.463Z,6.80
2018-12-06T19:56:01.947Z,6.80
2018-12-06T19:58:29.394Z,6.80
2018-12-06T20:00:56.845Z,6.80
2018-12-06T20:03:24.302Z,6.80
2018-12-06T20:05:51.824Z,6.80
2018-12-06T20:08:19.245Z,6.90
2018-12-06T20:10:46.761Z,6.90
2018-12-06T20:13:18.147Z,6.90
2018-12-06T20:15:45.638Z,7.00
2018-12-06T20:18:13.195Z,7.10
2018-12-06T20:20:40.818Z,7.20
2018-12-06T20:23:08.261Z,7.20
2018-12-06T20:25:35.773Z,7.20
2018-12-06T20:28:03.575Z,7.20
2018-12-06T20:30:31.081Z,7.30
2018-12-06T20:32:58.546Z,7.30
2018-12-06T20:35:26.097Z,7.30
2018-12-06T20:37:53.546Z,7.30
2018-12-06T20:40:21.051Z,7.30
2018-12-06T20:42:48.609Z,7.40
2018-12-06T20:45:16.113Z,7.40
2018-12-06T20:47:43.857Z,7.40
2018-12-06T20:50:11.451Z,7.40
2018-12-06T20:52:38.916Z,7.50
2018-12-06T20:55:09.258Z,7.50
2018-12-06T20:57:37.682Z,7.50
2018-12-06T21:00:06.034Z,7.50
2018-12-06T21:02:33.506Z,7.60
2018-12-06T21:05:01.493Z,7.60
2018-12-06T21:07:28.931Z,7.60
2018-12-06T21:09:56.375Z,7.60
2018-12-06T21:12:23.995Z,7.60
2018-12-06T21:14:51.595Z,7.60
2018-12-06T21:17:19.025Z,7.60
2018-12-06T21:19:46.516Z,7.60
2018-12-06T21:22:13.975Z,7.70
2018-12-06T21:24:41.490Z,7.60
2018-12-06T21:27:08.964Z,7.70
2018-12-06T21:29:36.472Z,7.80
2018-12-06T21:32:03.983Z,7.80
2018-12-06T21:34:31.514Z,7.80
2018-12-06T21:36:58.958Z,7.80
2018-12-06T21:39:26.418Z,7.80
2018-12-06T21:41:53.922Z,7.80
2018-12-06T21:44:21.359Z,7.80
2018-12-06T21:46:48.779Z,7.90
2018-12-06T21:49:23.542Z,7.90
2018-12-06T21:51:50.987Z,7.90
2018-12-06T21:54:18.535Z,7.90
2018-12-06T21:56:46.005Z,8.00
2018-12-06T21:59:13.431Z,8.00
2018-12-06T22:01:40.887Z,8.00
2018-12-06T22:04:08.372Z,8.00
2018-12-06T22:06:35.823Z,8.00
2018-12-06T22:09:05.184Z,7.90
2018-12-06T22:11:32.839Z,7.90
2018-12-06T22:14:00.309Z,8.00
2018-12-06T22:16:27.776Z,8.00
2018-12-06T22:18:55.261Z,8.00
2018-12-06T22:21:22.773Z,8.10
2018-12-06T22:23:50.190Z,8.00
2018-12-06T22:26:17.649Z,8.10
2018-12-06T22:28:45.147Z,8.10
2018-12-06T22:31:12.553Z,8.10
2018-12-06T22:33:40.092Z,8.20
2018-12-06T22:36:07.510Z,8.20
2018-12-06T22:38:34.941Z,8.20
2018-12-06T22:41:02.470Z,8.20
2018-12-06T22:43:29.904Z,8.20
2018-12-06T22:45:58.117Z,8.20
2018-12-06T22:48:25.608Z,8.20
2018-12-06T22:50:53.085Z,8.20
2018-12-06T22:53:21.651Z,8.20
2018-12-06T22:55:49.147Z,8.30
2018-12-06T22:58:16.666Z,8.30
2018-12-06T23:00:47.649Z,8.30
2018-12-06T23:03:15.115Z,8.40
2018-12-06T23:05:42.608Z,8.30
2018-12-06T23:08:10.054Z,8.40
2018-12-06T23:10:37.530Z,8.40
2018-12-06T23:13:05.019Z,8.50
2018-12-06T23:15:32.463Z,8.50
2018-12-06T23:18:00.169Z,8.50
2018-12-06T23:20:27.710Z,8.50
2018-12-06T23:22:55.162Z,8.50
2018-12-06T23:25:22.656Z,8.60
2018-12-06T23:27:50.115Z,8.60
2018-12-06T23:30:17.630Z,8.60
2018-12-06T23:32:45.201Z,8.50
2018-12-06T23:35:12.674Z,8.60
2018-12-06T23:37:40.196Z,8.50
2018-12-06T23:40:07.736Z,8.50
2018-12-06T23:42:35.193Z,8.60
2018-12-06T23:45:02.760Z,8.60
2018-12-06T23:47:30.195Z,8.60
2018-12-06T23:49:57.687Z,8.60
2018-12-06T23:52:25.169Z,8.60
2018-12-06T23:54:52.868Z,8.60
2018-12-06T23:57:20.292Z,8.60
2018-12-06T23:59:47.826Z,8.60
